Terminal Aerodrome Forecast
Issued by NWS

Home | Current Version | Previous Version | Text Only | Print | Product List | Glossary On
Versions: 1 2 3 4 5 6 7 8 9 10 11 12 13 14 15 16 17 18 19 20
000
FTUS44 KLZK 281700 RRA
TAFADF
TAF
KADF 281746Z 2818/2918 14005KT P6SM -SHRA VCTS SCT025 BKN035CB
      TEMPO 2818/2820 27010G20KT 2SM +TSRA BKN020 OVC030CB
     FM282200 VRB04KT P6SM SCT035 BKN050 BKN100
     FM290100 00000KT P6SM SCT250=

USA.gov is the U.S. government's official web portal to all federal, state and local government web resources and services.